createdAt,value
2023-04-26T00:03:38.168Z,3.7
2023-04-26T00:08:34.752Z,3.8
2023-04-26T00:13:30.937Z,3.9
2023-04-26T00:18:27.528Z,4
2023-04-26T00:24:38.224Z,4.1
2023-04-26T00:29:34.922Z,3.9
2023-04-26T00:34:31.222Z,3.7
2023-04-26T00:39:27.879Z,3.6
2023-04-26T00:45:38.483Z,3.6
2023-04-26T00:50:35.218Z,3.7
2023-04-26T00:55:31.543Z,3.9
2023-04-26T01:00:28.122Z,4
2023-04-26T01:06:38.780Z,3.6
2023-04-26T01:11:35.269Z,3.5
2023-04-26T01:16:31.787Z,3.7
2023-04-26T01:21:28.336Z,3.6
2023-04-26T01:27:39.037Z,3.2
2023-04-26T01:32:35.473Z,3.4
2023-04-26T01:37:32.023Z,3.1
2023-04-26T01:42:28.531Z,3.1
2023-04-26T01:47:25.189Z,3
2023-04-26T01:53:35.750Z,3.1
2023-04-26T01:58:32.289Z,2.6
2023-04-26T02:03:28.922Z,2.8
2023-04-26T02:08:25.357Z,2.7
2023-04-26T02:14:36.021Z,2.8
2023-04-26T02:19:32.609Z,2.6
2023-04-26T02:24:29.171Z,2.7
2023-04-26T02:29:42.139Z,2.4
2023-04-26T02:33:08.054Z,2.4
2023-04-26T02:35:36.694Z,2.4
2023-04-26T02:40:32.888Z,2.3
2023-04-26T02:45:29.402Z,2.4
2023-04-26T02:56:36.539Z,2.3
2023-04-26T03:01:33.226Z,2.3
2023-04-26T03:06:29.606Z,2.6
2023-04-26T03:11:26.139Z,2.7
2023-04-26T03:17:36.803Z,2.5
2023-04-26T03:22:33.349Z,2.6
2023-04-26T03:27:29.870Z,2.8
2023-04-26T03:32:26.471Z,2.8
2023-04-26T03:38:37.059Z,2.8
2023-04-26T03:43:33.688Z,2.9
2023-04-26T03:48:30.145Z,2.7
2023-04-26T03:53:26.688Z,2.6
2023-04-26T03:59:37.332Z,2.6
2023-04-26T04:04:34.066Z,2.6
2023-04-26T04:09:30.467Z,2.6
2023-04-26T04:20:37.605Z,2.3
2023-04-26T04:25:34.173Z,2.3
2023-04-26T04:30:30.621Z,2.1
2023-04-26T04:35:27.227Z,1.9
2023-04-26T04:41:37.893Z,2
2023-04-26T04:46:34.891Z,2.1
2023-04-26T04:51:30.905Z,2.5
2023-04-26T04:56:27.543Z,2.6
2023-04-26T05:02:38.216Z,2.8
2023-04-26T05:07:35.071Z,2.7
2023-04-26T05:12:31.187Z,2.9
2023-04-26T05:17:27.794Z,3.3
2023-04-26T05:23:38.403Z,3.4
2023-04-26T05:28:35.032Z,3.5
2023-04-26T05:33:31.426Z,3.5
2023-04-26T05:38:27.995Z,3.3
2023-04-26T05:43:24.510Z,3.4
2023-04-26T05:49:35.323Z,3.7
2023-04-26T05:54:31.704Z,3.8
2023-04-26T05:59:28.255Z,3.7
2023-04-26T06:05:39.049Z,3.8
2023-04-26T06:10:35.524Z,4
2023-04-26T06:15:32.023Z,4
2023-04-26T06:20:28.649Z,4.3
2023-04-26T06:26:39.290Z,4.5
2023-04-26T06:31:35.782Z,4.8
2023-04-26T06:36:32.277Z,4.6
2023-04-26T06:41:28.853Z,4.9
2023-04-26T06:46:25.648Z,5.1
2023-04-26T06:52:35.988Z,5.6
2023-04-26T06:57:32.644Z,5.6
2023-04-26T07:02:29.468Z,5.6
2023-04-26T07:07:25.589Z,5.7
2023-04-26T07:13:36.237Z,6
2023-04-26T07:18:32.873Z,6.4
2023-04-26T07:23:29.348Z,6.5
2023-04-26T07:34:36.514Z,7.4
2023-04-26T07:39:33.105Z,7.3
2023-04-26T07:44:29.573Z,7.6
2023-04-26T07:49:26.202Z,8.7
2023-04-26T07:55:36.787Z,8.6
2023-04-26T08:00:33.325Z,8.8
2023-04-26T08:05:29.946Z,8.9
2023-04-26T08:10:26.455Z,8.4
2023-04-26T08:16:37.074Z,8.6
2023-04-26T08:21:33.590Z,8.3
2023-04-26T08:26:30.107Z,8.3
2023-04-26T08:37:37.325Z,8.1
2023-04-26T08:42:34.719Z,8.1
2023-04-26T08:47:30.407Z,8.7
2023-04-26T08:58:37.603Z,8.7
2023-04-26T09:03:34.273Z,9.4
2023-04-26T09:08:30.615Z,8.7
2023-04-26T09:13:27.190Z,9.3
2023-04-26T09:19:37.901Z,9.2
2023-04-26T09:24:34.419Z,9.7
2023-04-26T09:29:30.885Z,8.9
2023-04-26T09:34:27.457Z,9.4
2023-04-26T09:40:38.098Z,10.9
2023-04-26T09:45:34.652Z,11.5
2023-04-26T09:50:31.169Z,11.3
2023-04-26T09:55:34.825Z,9.9
2023-04-26T09:56:41.910Z,9.6
2023-04-26T10:06:35.174Z,10.8
2023-04-26T10:11:31.408Z,10.8
2023-04-26T10:16:28.033Z,10.7
2023-04-26T10:22:38.665Z,10.2
2023-04-26T10:27:35.745Z,9.7
2023-04-26T10:32:31.838Z,10.8
2023-04-26T10:37:28.410Z,10.6
2023-04-26T10:42:25.925Z,11.1
2023-04-26T10:48:35.614Z,13.1
2023-04-26T10:53:32.049Z,14.2
2023-04-26T10:58:28.493Z,13.5
2023-04-26T11:03:25.359Z,13.1
2023-04-26T11:09:35.809Z,13.1
2023-04-26T11:14:32.250Z,11.3
2023-04-26T11:19:28.838Z,11.8
2023-04-26T11:24:25.391Z,12.7
2023-04-26T11:30:35.952Z,14
2023-04-26T11:35:32.525Z,14.1
2023-04-26T11:40:29.156Z,12.8
2023-04-26T11:45:25.638Z,12.2
2023-04-26T11:51:36.219Z,14
2023-04-26T11:56:32.779Z,16.8
2023-04-26T12:01:29.324Z,17.5
2023-04-26T12:12:36.526Z,17.3
2023-04-26T12:17:33.254Z,15.4
2023-04-26T12:22:29.559Z,15.1
2023-04-26T12:27:26.127Z,16.1
2023-04-26T12:33:36.783Z,17.3
2023-04-26T12:38:33.366Z,17.3
2023-04-26T12:43:29.843Z,19.1
2023-04-26T12:48:26.358Z,16.7
2023-04-26T12:54:37.051Z,17.2
2023-04-26T12:59:33.610Z,16.4
2023-04-26T13:04:30.310Z,17
2023-04-26T13:09:26.721Z,16.6
2023-04-26T13:15:37.341Z,15.2
2023-04-26T13:20:33.862Z,14.4
2023-04-26T13:25:30.351Z,15.8
2023-04-26T13:36:37.570Z,19.5
2023-04-26T13:41:34.082Z,21.2
2023-04-26T13:46:30.599Z,19
2023-04-26T13:51:27.181Z,23
2023-04-26T13:57:37.925Z,20.6
2023-04-26T14:02:34.615Z,18.3
2023-04-26T14:07:30.959Z,20.2
2023-04-26T14:12:27.457Z,20.7
2023-04-26T14:18:38.069Z,22.8
2023-04-26T14:23:34.693Z,22.8
2023-04-26T14:28:31.120Z,23.7
2023-04-26T14:33:27.780Z,25.1
2023-04-26T14:39:38.380Z,25.7
2023-04-26T14:44:34.891Z,25.8
2023-04-26T14:49:31.493Z,20.5
2023-04-26T14:54:28.027Z,22.6
2023-04-26T15:00:38.746Z,23.4
2023-04-26T15:05:35.331Z,25
2023-04-26T15:08:03.440Z,24.7
2023-04-26T15:10:31.657Z,25.9
2023-04-26T15:15:28.282Z,25
2023-04-26T15:20:24.828Z,20.3
2023-04-26T15:26:35.609Z,19
2023-04-26T15:31:32.023Z,22
2023-04-26T15:36:28.519Z,24.2
2023-04-26T15:41:25.082Z,24.9
2023-04-26T15:47:35.854Z,20.3
2023-04-26T15:52:32.212Z,17.9
2023-04-26T15:57:28.749Z,17.7
2023-04-26T16:02:25.409Z,16.2
2023-04-26T16:08:40.293Z,16.5
2023-04-26T16:13:32.499Z,19.5
2023-04-26T16:18:29.114Z,22.2
2023-04-26T16:23:25.630Z,24.2
2023-04-26T16:29:36.233Z,24.2
2023-04-26T16:34:32.838Z,23.4
2023-04-26T16:39:29.291Z,19.7
2023-04-26T16:44:25.884Z,19.5
2023-04-26T16:50:36.570Z,16
2023-04-26T16:54:27.060Z,16.8
2023-04-26T17:00:37.736Z,19.1
2023-04-26T17:05:34.328Z,18.2
2023-04-26T17:10:30.795Z,17.8
2023-04-26T17:15:27.442Z,18.9
2023-04-26T17:21:38.006Z,17.4
2023-04-26T17:26:34.534Z,17.1
2023-04-26T17:31:31.051Z,17.4
2023-04-26T17:36:27.639Z,17.4
2023-04-26T17:42:38.258Z,17.7
2023-04-26T17:47:34.929Z,15.4
2023-04-26T17:52:31.298Z,13.7
2023-04-26T17:57:27.860Z,13.5
2023-04-26T18:03:38.708Z,13.3
2023-04-26T18:08:35.114Z,12.7
2023-04-26T18:13:31.566Z,11.8
2023-04-26T18:18:28.191Z,11
2023-04-26T18:24:38.811Z,10.2
2023-04-26T18:29:35.445Z,9.9
2023-04-26T18:34:31.825Z,9.5
2023-04-26T18:39:28.478Z,9.4
2023-04-26T18:45:39.051Z,9.2
2023-04-26T18:50:35.763Z,8.9
2023-04-26T18:55:32.124Z,8.6
2023-04-26T19:00:28.706Z,8.7
2023-04-26T19:06:39.311Z,8.7
2023-04-26T19:11:36.035Z,8.7
2023-04-26T19:16:32.546Z,8.7
2023-04-26T19:21:28.931Z,8.9
2023-04-26T19:26:25.453Z,8.8
2023-04-26T19:32:36.360Z,8.8
2023-04-26T19:42:29.166Z,8.6
2023-04-26T19:47:25.772Z,8.7
2023-04-26T19:53:36.456Z,8.6
2023-04-26T19:58:32.958Z,8.6
2023-04-26T20:03:29.668Z,8.6
2023-04-26T20:14:36.627Z,8.4
2023-04-26T20:19:33.209Z,8.5
2023-04-26T20:24:29.714Z,8.6
2023-04-26T20:29:26.352Z,8.8
2023-04-26T20:35:36.917Z,8.6
2023-04-26T20:40:33.459Z,8.5
2023-04-26T20:45:29.994Z,8.1
2023-04-26T20:50:26.577Z,8.1
2023-04-26T20:56:37.136Z,8.1
2023-04-26T21:01:33.867Z,8.2
2023-04-26T21:06:30.320Z,8.1
2023-04-26T21:11:26.772Z,8.4
2023-04-26T21:17:37.486Z,8.2
2023-04-26T21:22:34.013Z,8.2
2023-04-26T21:27:30.459Z,8.5
2023-04-26T21:32:27.190Z,8.4
2023-04-26T21:38:37.732Z,8.5
2023-04-26T21:43:34.241Z,8.2
2023-04-26T21:48:30.732Z,8.3
2023-04-26T21:53:27.295Z,8.3
2023-04-26T21:59:37.988Z,8
2023-04-26T22:04:34.587Z,7.8
2023-04-26T22:09:30.994Z,8
2023-04-26T22:14:27.577Z,7.9
2023-04-26T22:20:38.248Z,8
2023-04-26T22:25:34.848Z,7.7
2023-04-26T22:30:31.289Z,7.7
2023-04-26T22:35:27.883Z,7.8
2023-04-26T22:41:38.492Z,7.7
2023-04-26T22:46:35.110Z,7.5
2023-04-26T22:51:31.534Z,7.4
2023-04-26T22:56:28.163Z,7.3
2023-04-26T23:02:38.871Z,7.7
2023-04-26T23:07:35.295Z,7.6
2023-04-26T23:12:31.862Z,7.5
2023-04-26T23:17:28.484Z,7.4
2023-04-26T23:23:39.008Z,7.3
2023-04-26T23:28:35.540Z,7.4
2023-04-26T23:33:32.094Z,7.4
2023-04-26T23:38:28.626Z,7.6
2023-04-26T23:43:25.206Z,7.6
2023-04-26T23:49:36.089Z,7.6
2023-04-26T23:54:32.350Z,7.3
2023-04-26T23:59:28.904Z,7.4
